Time;durP1;ratioP1;P1;durP2;ratioP2;P2;SDS_P1;SDS_P2;PMS_P1;PMS_P2;Temp;Humidity;BMP_temperature;BMP_pressure;BME280_temperature;BME280_humidity;BME280_pressure;Samples;Min_cycle;Max_cycle;Signal;HPM_P1;HPM_P2
2023/08/18 00:01:54;;;;;;;6.25;4.00;;;21.00;1.00;;;;;;7391491;19;20476;-76
2023/08/18 00:04:27;;;;;;;9.32;3.58;;;21.10;1.00;;;;;;7392944;19;20014;-76
2023/08/18 00:06:57;;;;;;;7.10;4.55;;;21.10;1.00;;;;;;7388965;19;20014;-76
2023/08/18 00:09:27;;;;;;;7.10;4.20;;;21.10;1.00;;;;;;7389199;19;20155;-75
2023/08/18 00:11:58;;;;;;;5.72;3.63;;;21.00;1.00;;;;;;7390047;19;20014;-76
2023/08/18 00:14:28;;;;;;;6.10;3.58;;;21.10;1.00;;;;;;7388665;19;20502;-76
2023/08/18 00:16:57;;;;;;;6.22;4.05;;;20.90;1.00;;;;;;7387496;19;20018;-76
2023/08/18 00:19:30;;;;;;;8.18;4.65;;;20.90;1.00;;;;;;7384428;19;20090;-76
2023/08/18 00:22:00;;;;;;;6.30;3.92;;;20.80;1.00;;;;;;7388322;19;20045;-76
2023/08/18 00:24:30;;;;;;;5.22;3.65;;;20.70;1.00;;;;;;7387501;19;20328;-77
2023/08/18 00:27:00;;;;;;;5.30;3.80;;;20.70;1.00;;;;;;7387941;19;20014;-76
2023/08/18 00:29:30;;;;;;;5.82;3.63;;;20.50;1.00;;;;;;7388664;19;20018;-76
2023/08/18 00:32:01;;;;;;;8.98;4.22;;;20.50;1.00;;;;;;7389241;19;20039;-76
2023/08/18 00:34:34;;;;;;;7.47;3.70;;;20.30;1.00;;;;;;7387591;19;20493;-76
2023/08/18 00:37:03;;;;;;;6.07;4.07;;;20.30;1.00;;;;;;7387651;19;20478;-76
2023/08/18 00:39:33;;;;;;;9.20;4.38;;;20.20;1.00;;;;;;7386757;19;20022;-77
2023/08/18 00:42:03;;;;;;;8.15;4.38;;;20.10;1.00;;;;;;7387145;19;20463;-76
2023/08/18 00:44:33;;;;;;;8.25;4.45;;;20.10;1.00;;;;;;7387819;19;20019;-76
2023/08/18 00:47:04;;;;;;;9.57;3.92;;;20.20;1.00;;;;;;7391176;19;20530;-76
2023/08/18 00:49:36;;;;;;;7.72;4.18;;;20.10;1.00;;;;;;7387204;19;20011;-75
2023/08/18 00:52:07;;;;;;;7.25;4.13;;;20.20;1.00;;;;;;7389042;19;20912;-76
2023/08/18 00:54:37;;;;;;;6.70;4.22;;;20.20;1.00;;;;;;7386850;19;20474;-75
2023/08/18 00:57:07;;;;;;;6.85;4.20;;;20.20;1.00;;;;;;7387480;19;20074;-76
2023/08/18 00:59:38;;;;;;;9.63;4.75;;;20.10;1.00;;;;;;7384545;19;20018;-76
2023/08/18 01:02:08;;;;;;;7.60;4.28;;;20.10;1.00;;;;;;7388642;19;20011;-75
2023/08/18 01:04:40;;;;;;;6.35;3.90;;;20.10;1.00;;;;;;7386226;19;20015;-75
2023/08/18 01:07:10;;;;;;;7.20;4.45;;;20.10;1.00;;;;;;7385118;19;20508;-76
2023/08/18 01:09:40;;;;;;;6.55;4.10;;;20.10;1.00;;;;;;7387298;19;20014;-76
2023/08/18 01:12:20;;;;;;;6.97;3.90;;;20.10;1.00;;;;;;7386984;19;20014;-76
2023/08/18 01:15:02;;;;;;;7.32;4.50;;;20.00;1.00;;;;;;7386639;19;20017;-76
2023/08/18 01:17:50;;;;;;;8.75;4.20;;;20.10;1.00;;;;;;7387302;19;20085;-76
2023/08/18 01:20:23;;;;;;;6.75;4.63;;;20.10;1.00;;;;;;7383765;19;20018;-75
2023/08/18 01:22:58;;;;;;;5.07;4.03;;;20.10;1.00;;;;;;7389735;19;20018;-76
2023/08/18 01:25:29;;;;;;;6.93;3.92;;;20.10;1.00;;;;;;7386886;19;20136;-75
2023/08/18 01:28:02;;;;;;;5.75;4.18;;;20.00;1.00;;;;;;7387292;19;20035;-76
2023/08/18 01:30:37;;;;;;;7.60;4.10;;;20.00;1.00;;;;;;7383887;19;20355;-76
2023/08/18 01:33:13;;;;;;;5.30;4.50;;;19.90;1.00;;;;;;7389754;19;20024;-75
2023/08/18 01:35:46;;;;;;;9.90;4.10;;;19.90;1.00;;;;;;7386766;19;20025;-76
2023/08/18 01:38:21;;;;;;;6.07;4.57;;;19.90;1.00;;;;;;7386394;19;20035;-75
2023/08/18 01:40:53;;;;;;;10.38;4.07;;;20.00;1.00;;;;;;7385053;19;20582;-75
2023/08/18 01:43:24;;;;;;;6.30;3.80;;;20.10;1.00;;;;;;7390515;19;20031;-76
2023/08/18 01:45:53;;;;;;;7.63;4.20;;;20.20;1.00;;;;;;7389095;19;20027;-76
2023/08/18 01:48:23;;;;;;;8.18;3.88;;;20.00;1.00;;;;;;7387940;19;20788;-76
2023/08/18 01:50:53;;;;;;;5.15;3.60;;;20.00;1.00;;;;;;7390484;19;20040;-76
2023/08/18 01:53:26;;;;;;;7.03;3.90;;;19.90;1.00;;;;;;7397126;19;20461;-75
2023/08/18 01:55:56;;;;;;;5.00;3.80;;;20.00;1.00;;;;;;7405112;19;20070;-75
2023/08/18 01:58:25;;;;;;;6.80;4.22;;;20.10;1.00;;;;;;7424803;19;20014;-75
2023/08/18 02:00:58;;;;;;;4.82;3.70;;;20.00;1.00;;;;;;7424845;19;20010;-75
2023/08/18 02:03:28;;;;;;;7.75;3.83;;;19.80;1.00;;;;;;7413715;19;20022;-74
2023/08/18 02:06:00;;;;;;;8.18;3.50;;;19.70;1.00;;;;;;7394398;19;20034;-75
2023/08/18 02:08:33;;;;;;;5.57;3.40;;;19.70;1.00;;;;;;7393021;19;20089;-75
2023/08/18 02:11:06;;;;;;;5.22;3.60;;;19.70;1.00;;;;;;7391537;19;20007;-75
2023/08/18 02:13:36;;;;;;;8.27;3.90;;;19.80;1.00;;;;;;7396576;19;20039;-75
2023/08/18 02:16:06;;;;;;;4.15;3.30;;;19.80;1.00;;;;;;7392972;19;20014;-75
2023/08/18 02:18:36;;;;;;;10.32;3.97;;;19.90;1.00;;;;;;7392912;19;20038;-75
2023/08/18 02:21:07;;;;;;;5.43;3.80;;;20.00;1.00;;;;;;7390133;19;20018;-76
2023/08/18 02:23:39;;;;;;;5.88;3.50;;;19.80;1.00;;;;;;7395489;19;20081;-76
2023/08/18 02:26:09;;;;;;;9.98;3.88;;;19.70;1.00;;;;;;7392395;19;20018;-75
2023/08/18 02:28:39;;;;;;;5.22;3.95;;;19.70;1.00;;;;;;7392109;19;20031;-75
2023/08/18 02:31:10;;;;;;;3.95;3.40;;;19.70;1.00;;;;;;7390340;19;20018;-76
2023/08/18 02:33:40;;;;;;;7.03;3.80;;;19.60;1.00;;;;;;7395542;19;20024;-76
2023/08/18 02:36:10;;;;;;;6.70;3.72;;;19.70;1.00;;;;;;7392126;19;20090;-76
2023/08/18 02:38:44;;;;;;;5.85;3.70;;;19.60;1.00;;;;;;7391909;19;20022;-75
2023/08/18 02:41:16;;;;;;;7.25;3.08;;;19.40;1.00;;;;;;7388514;19;20136;-75
2023/08/18 02:43:50;;;;;;;5.60;3.60;;;19.50;1.00;;;;;;7394692;19;20026;-75
2023/08/18 02:46:19;;;;;;;4.55;3.28;;;19.50;1.00;;;;;;7393396;19;20421;-74
2023/08/18 02:48:49;;;;;;;4.97;3.42;;;19.50;1.00;;;;;;7391258;19;20010;-75
2023/08/18 02:51:22;;;;;;;5.35;3.67;;;19.40;1.00;;;;;;7389766;19;20018;-75
2023/08/18 02:53:54;;;;;;;5.60;3.78;;;19.30;1.00;;;;;;7393285;19;20053;-76
2023/08/18 02:56:24;;;;;;;5.85;3.65;;;19.30;1.00;;;;;;7391151;19;20113;-76
2023/08/18 02:58:54;;;;;;;6.50;4.00;;;19.20;1.00;;;;;;7390833;19;20490;-76
2023/08/18 03:01:24;;;;;;;6.22;3.83;;;19.20;1.00;;;;;;7388968;19;20347;-76
2023/08/18 03:03:54;;;;;;;6.47;4.13;;;19.20;1.00;;;;;;7394090;19;20018;-75
2023/08/18 03:06:24;;;;;;;7.40;4.05;;;19.10;1.00;;;;;;7390789;19;20038;-75
2023/08/18 03:08:57;;;;;;;10.68;4.90;;;19.10;1.00;;;;;;7390264;19;20419;-76
2023/08/18 03:11:27;;;;;;;11.88;4.68;;;19.10;1.00;;;;;;7388595;19;20025;-75
2023/08/18 03:13:57;;;;;;;8.43;4.70;;;19.10;1.00;;;;;;7394609;19;20370;-76
2023/08/18 03:16:27;;;;;;;8.48;4.93;;;19.00;1.00;;;;;;7390947;19;20021;-76
2023/08/18 03:19:01;;;;;;;7.15;5.28;;;19.00;1.00;;;;;;7390046;19;20014;-77
2023/08/18 03:21:32;;;;;;;6.07;5.43;;;19.10;1.00;;;;;;7388047;19;20038;-77
2023/08/18 03:24:04;;;;;;;8.95;5.28;;;19.00;1.00;;;;;;7393632;19;20014;-76
2023/08/18 03:26:34;;;;;;;8.70;6.15;;;19.00;1.00;;;;;;7390250;19;20053;-75
2023/08/18 03:29:04;;;;;;;9.70;6.22;;;18.90;1.00;;;;;;7390018;19;20086;-75
2023/08/18 03:31:34;;;;;;;8.52;5.65;;;19.00;1.00;;;;;;7388727;19;20023;-76
2023/08/18 03:34:04;;;;;;;10.38;6.03;;;18.90;1.00;;;;;;7393350;19;20014;-76
2023/08/18 03:36:34;;;;;;;10.02;6.03;;;18.80;1.00;;;;;;7389558;19;20038;-74
2023/08/18 03:39:07;;;;;;;10.23;5.88;;;18.80;1.00;;;;;;7389725;19;20018;-75
2023/08/18 03:41:37;;;;;;;9.48;5.72;;;18.90;1.00;;;;;;7387493;19;20082;-75
2023/08/18 03:44:07;;;;;;;13.75;5.60;;;19.10;1.00;;;;;;7393306;19;20506;-76
2023/08/18 03:46:37;;;;;;;7.20;5.10;;;19.20;1.00;;;;;;7390267;19;20478;-76
2023/08/18 03:49:10;;;;;;;12.18;5.00;;;19.20;1.00;;;;;;7390122;19;20026;-77
2023/08/18 03:51:40;;;;;;;7.20;4.38;;;19.30;1.00;;;;;;7387535;19;20089;-76
2023/08/18 03:54:12;;;;;;;10.23;5.40;;;19.10;1.00;;;;;;7392982;19;20010;-76
2023/08/18 03:56:42;;;;;;;8.77;5.18;;;19.00;1.00;;;;;;7389021;19;20801;-75
2023/08/18 03:59:12;;;;;;;7.82;4.65;;;19.00;1.00;;;;;;7388336;19;20466;-75
2023/08/18 04:01:42;;;;;;;10.02;5.57;;;18.80;1.00;;;;;;7387349;19;20086;-76
2023/08/18 04:04:12;;;;;;;9.77;5.00;;;18.80;1.00;;;;;;7392384;19;20042;-77
2023/08/18 04:06:42;;;;;;;12.85;5.90;;;18.90;1.00;;;;;;7388788;19;20498;-76
2023/08/18 04:09:16;;;;;;;7.75;4.95;;;18.80;1.00;;;;;;7388799;19;20503;-75
2023/08/18 04:11:46;;;;;;;8.65;5.40;;;18.80;1.00;;;;;;7386165;19;20499;-77
2023/08/18 04:14:18;;;;;;;8.60;4.50;;;18.70;1.00;;;;;;7389789;19;20010;-75
2023/08/18 04:16:48;;;;;;;8.35;4.90;;;18.70;1.00;;;;;;7388987;19;20031;-76
2023/08/18 04:19:21;;;;;;;15.52;5.25;;;18.70;1.00;;;;;;7388427;19;20042;-75
2023/08/18 04:21:51;;;;;;;11.20;5.75;;;18.80;1.00;;;;;;7386019;19;20070;-76
2023/08/18 04:24:23;;;;;;;8.23;5.45;;;18.80;1.00;;;;;;7391934;19;20426;-76
2023/08/18 04:26:59;;;;;;;8.32;5.53;;;18.90;1.00;;;;;;7388386;19;20027;-76
2023/08/18 04:29:29;;;;;;;7.85;5.20;;;18.90;1.00;;;;;;7388328;19;20031;-76
2023/08/18 04:31:59;;;;;;;7.82;5.38;;;19.00;1.00;;;;;;7387981;19;20478;-76
2023/08/18 04:34:29;;;;;;;10.18;5.18;;;19.00;1.00;;;;;;7391524;19;20011;-76
2023/08/18 04:36:59;;;;;;;8.02;5.50;;;18.90;1.00;;;;;;7387897;19;20566;-75
2023/08/18 04:39:32;;;;;;;9.68;4.95;;;19.00;1.00;;;;;;7386587;19;20029;-76
2023/08/18 04:42:01;;;;;;;13.63;5.20;;;19.10;1.00;;;;;;7387073;19;20020;-77
2023/08/18 04:44:31;;;;;;;6.10;4.75;;;19.10;1.00;;;;;;7391539;19;20018;-76
2023/08/18 04:47:04;;;;;;;10.57;5.03;;;19.30;1.00;;;;;;7389350;19;20027;-75
2023/08/18 04:49:34;;;;;;;6.47;4.70;;;19.30;1.00;;;;;;7387734;19;20097;-75
2023/08/18 04:52:05;;;;;;;9.23;4.80;;;19.30;1.00;;;;;;7387794;19;20011;-75
2023/08/18 04:54:38;;;;;;;5.95;4.55;;;19.40;1.00;;;;;;7387342;19;20031;-75
2023/08/18 04:57:08;;;;;;;6.32;4.40;;;19.60;1.00;;;;;;7387775;19;20081;-76
2023/08/18 04:59:38;;;;;;;5.75;4.47;;;19.50;1.00;;;;;;7386643;19;20035;-75
2023/08/18 05:02:07;;;;;;;6.25;4.30;;;19.50;1.00;;;;;;7386841;19;20007;-74
2023/08/18 05:04:37;;;;;;;5.03;3.80;;;19.90;1.00;;;;;;7386723;19;20051;-76
2023/08/18 05:07:07;;;;;;;8.40;4.30;;;20.50;1.00;;;;;;7387550;19;20035;-76
2023/08/18 05:09:40;;;;;;;9.00;4.03;;;20.70;1.00;;;;;;7387582;19;20035;-76
2023/08/18 05:12:10;;;;;;;7.10;3.83;;;21.60;1.00;;;;;;7387161;19;20011;-76
2023/08/18 05:14:40;;;;;;;7.80;4.60;;;22.50;1.00;;;;;;7387028;19;20082;-75
2023/08/18 05:17:10;;;;;;;5.20;3.35;;;22.50;1.00;;;;;;7387530;19;20470;-76
2023/08/18 05:19:40;;;;;;;5.35;3.30;;;22.70;1.00;;;;;;7387214;19;20042;-77
2023/08/18 05:22:10;;;;;;;7.63;3.90;;;23.70;1.00;;;;;;7387373;19;20050;-76
2023/08/18 05:24:42;;;;;;;7.78;3.38;;;23.80;1.00;;;;;;7392077;19;20023;-76
2023/08/18 05:27:12;;;;;;;5.55;3.78;;;23.60;1.00;;;;;;7395519;19;20088;-77
2023/08/18 05:29:42;;;;;;;4.28;3.08;;;24.70;1.00;;;;;;7395057;19;20360;-76
2023/08/18 05:32:13;;;;;;;6.20;3.10;;;25.00;1.00;;;;;;7395717;19;20443;-75
2023/08/18 05:34:42;;;;;;;5.47;2.95;;;24.50;1.00;;;;;;7399716;19;20538;-76
2023/08/18 05:37:13;;;;;;;5.03;2.83;;;24.80;1.00;;;;;;7395342;19;20089;-76
2023/08/18 05:39:46;;;;;;;6.75;3.20;;;24.80;1.00;;;;;;7394242;19;20086;-76
2023/08/18 05:42:16;;;;;;;6.82;3.03;;;24.80;1.00;;;;;;7393433;19;20080;-76
2023/08/18 05:44:46;;;;;;;5.63;2.97;;;24.30;1.00;;;;;;7393733;19;20022;-76
2023/08/18 05:47:15;;;;;;;4.15;2.92;;;24.40;1.00;;;;;;7420227;19;20007;-76
2023/08/18 05:49:45;;;;;;;4.85;2.70;;;22.70;1.00;;;;;;7427137;19;20018;-75
2023/08/18 05:52:15;;;;;;;5.95;3.42;;;22.10;1.00;;;;;;7426186;19;20010;-74
2023/08/18 05:54:48;;;;;;;4.90;2.88;;;21.80;1.00;;;;;;7409145;19;20036;-74
2023/08/18 05:57:17;;;;;;;4.43;3.00;;;21.70;1.00;;;;;;7395481;19;20031;-76
2023/08/18 05:59:47;;;;;;;4.25;2.95;;;21.50;1.00;;;;;;7393239;19;20077;-76
2023/08/18 06:02:20;;;;;;;5.57;3.00;;;21.70;1.00;;;;;;7391118;19;20022;-76
2023/08/18 06:04:50;;;;;;;4.30;2.65;;;21.70;1.00;;;;;;7394169;19;20016;-76
2023/08/18 06:07:20;;;;;;;6.05;3.35;;;21.90;1.00;;;;;;7393602;19;20014;-75
2023/08/18 06:09:52;;;;;;;7.18;3.30;;;21.90;1.00;;;;;;7392774;19;20010;-77
2023/08/18 06:12:22;;;;;;;6.25;2.85;;;22.20;1.00;;;;;;7393133;19;20031;-75
2023/08/18 06:14:52;;;;;;;5.13;2.70;;;22.10;1.00;;;;;;7397961;19;20071;-76
2023/08/18 06:17:22;;;;;;;4.50;3.30;;;22.40;1.00;;;;;;7392388;19;20031;-74
2023/08/18 06:19:52;;;;;;;6.35;3.28;;;22.50;1.00;;;;;;7392533;19;20031;-75
2023/08/18 06:22:22;;;;;;;5.93;2.85;;;22.20;1.00;;;;;;7392517;19;20010;-76
2023/08/18 06:24:55;;;;;;;5.13;2.95;;;22.30;1.00;;;;;;7396460;19;20019;-76
2023/08/18 06:27:25;;;;;;;3.85;2.60;;;22.40;1.00;;;;;;7391179;19;20014;-76
2023/08/18 06:29:55;;;;;;;7.50;2.80;;;22.60;1.00;;;;;;7392270;19;20085;-76
2023/08/18 06:32:25;;;;;;;5.30;3.05;;;22.40;1.00;;;;;;7392056;19;20474;-75
2023/08/18 06:34:55;;;;;;;4.90;2.80;;;22.70;1.00;;;;;;7396063;19;20015;-75
2023/08/18 06:37:25;;;;;;;3.70;2.70;;;22.50;1.00;;;;;;7390490;19;20066;-75
2023/08/18 06:39:58;;;;;;;4.05;2.80;;;22.40;1.00;;;;;;7391251;19;20027;-76
2023/08/18 06:42:28;;;;;;;4.30;2.63;;;22.50;1.00;;;;;;7391929;19;20078;-75
2023/08/18 06:44:59;;;;;;;6.68;2.95;;;22.70;1.00;;;;;;7396859;19;20013;-76
2023/08/18 06:47:29;;;;;;;2.88;2.50;;;22.90;1.00;;;;;;7396191;19;20015;-76
2023/08/18 06:50:01;;;;;;;5.78;2.70;;;22.80;1.00;;;;;;7390971;19;20392;-77
2023/08/18 06:52:30;;;;;;;5.15;2.85;;;22.80;1.00;;;;;;7391938;19;20275;-75
2023/08/18 06:55:03;;;;;;;4.05;2.35;;;23.10;1.00;;;;;;7391489;19;20021;-76
2023/08/18 06:57:36;;;;;;;5.50;2.85;;;23.00;1.00;;;;;;7391986;19;20088;-75
2023/08/18 07:00:09;;;;;;;7.47;2.53;;;23.00;1.00;;;;;;7391095;19;20042;-76
2023/08/18 07:02:39;;;;;;;7.68;2.92;;;22.90;1.00;;;;;;7390241;19;20015;-75
2023/08/18 07:05:11;;;;;;;3.53;2.80;;;23.00;1.00;;;;;;7391005;19;20021;-76
2023/08/18 07:07:41;;;;;;;3.60;2.25;;;23.30;1.00;;;;;;7390122;19;20023;-77
2023/08/18 07:10:14;;;;;;;4.07;2.72;;;23.50;1.00;;;;;;7390797;19;20099;-77
2023/08/18 07:12:44;;;;;;;5.45;2.70;;;23.70;1.00;;;;;;7391040;19;20089;-77
2023/08/18 07:15:14;;;;;;;4.88;2.38;;;23.50;1.00;;;;;;7390218;19;20010;-77
2023/08/18 07:17:44;;;;;;;8.98;2.88;;;23.50;1.00;;;;;;7391329;19;20119;-76
2023/08/18 07:20:14;;;;;;;3.70;2.33;;;23.80;1.00;;;;;;7389955;19;20023;-76
2023/08/18 07:22:44;;;;;;;3.58;2.38;;;23.80;1.00;;;;;;7388774;19;20007;-75
2023/08/18 07:25:17;;;;;;;3.92;2.75;;;24.00;1.00;;;;;;7390473;19;20085;-76
2023/08/18 07:27:46;;;;;;;4.57;2.55;;;24.30;1.00;;;;;;7390971;19;20085;-76
2023/08/18 07:30:17;;;;;;;6.78;2.50;;;24.60;1.00;;;;;;7388975;19;20085;-76
2023/08/18 07:32:47;;;;;;;4.78;2.17;;;24.40;1.00;;;;;;7391057;19;20019;-75
2023/08/18 07:35:17;;;;;;;3.95;2.40;;;24.60;1.00;;;;;;7390240;19;20019;-76
2023/08/18 07:37:47;;;;;;;4.38;2.60;;;24.40;1.00;;;;;;7390800;19;20100;-77
2023/08/18 07:40:22;;;;;;;5.30;2.30;;;24.60;1.00;;;;;;7389232;19;20478;-76
2023/08/18 07:42:52;;;;;;;6.57;2.40;;;24.20;1.00;;;;;;7390136;19;20754;-76
2023/08/18 07:45:26;;;;;;;3.38;2.03;;;24.40;1.00;;;;;;7388662;19;20518;-76
2023/08/18 07:47:57;;;;;;;5.00;2.05;;;24.50;1.00;;;;;;7387742;19;20006;-76
2023/08/18 07:50:27;;;;;;;4.55;2.70;;;24.60;1.00;;;;;;7387886;19;20022;-76
2023/08/18 07:52:57;;;;;;;3.17;1.85;;;24.70;1.00;;;;;;7389415;19;20027;-75
2023/08/18 07:55:30;;;;;;;4.05;2.20;;;24.50;1.00;;;;;;7389453;19;20035;-75
2023/08/18 07:58:00;;;;;;;6.90;2.25;;;24.60;1.00;;;;;;7390082;19;20038;-75
2023/08/18 08:00:30;;;;;;;4.63;2.38;;;24.90;1.00;;;;;;7388137;19;20018;-75
2023/08/18 08:03:00;;;;;;;5.10;2.30;;;25.00;1.00;;;;;;7387662;19;20018;-74
2023/08/18 08:05:30;;;;;;;2.33;2.10;;;25.00;1.00;;;;;;7389285;19;20080;-75
2023/08/18 08:08:00;;;;;;;3.60;2.25;;;25.10;1.00;;;;;;7388116;19;20415;-75
2023/08/18 08:10:33;;;;;;;6.00;2.38;;;25.30;1.00;;;;;;7388198;19;20123;-75
2023/08/18 08:13:03;;;;;;;4.15;2.53;;;25.40;1.00;;;;;;7389119;19;20007;-76
2023/08/18 08:15:33;;;;;;;4.00;2.30;;;25.10;1.00;;;;;;7387974;19;20468;-76
2023/08/18 08:18:06;;;;;;;3.53;2.17;;;25.50;1.00;;;;;;7388107;19;20046;-75
2023/08/18 08:20:41;;;;;;;2.80;2.28;;;25.20;1.00;;;;;;7388328;19;20020;-75
2023/08/18 08:23:11;;;;;;;4.82;2.55;;;25.50;1.00;;;;;;7389014;19;20011;-75
2023/08/18 08:25:44;;;;;;;2.55;2.08;;;25.20;1.00;;;;;;7388669;19;20038;-75
2023/08/18 08:28:15;;;;;;;5.00;2.30;;;24.80;1.00;;;;;;7388545;19;20015;-74
2023/08/18 08:30:47;;;;;;;4.43;2.20;;;25.50;1.00;;;;;;7387353;19;20022;-74
2023/08/18 08:33:17;;;;;;;4.82;2.08;;;25.60;1.00;;;;;;7388601;19;20014;-76
2023/08/18 08:35:47;;;;;;;4.13;2.22;;;25.70;1.00;;;;;;7386684;19;20014;-76
2023/08/18 08:38:17;;;;;;;3.53;2.20;;;25.80;1.00;;;;;;7387311;19;20070;-76
2023/08/18 08:40:54;;;;;;;3.70;2.40;;;25.70;1.00;;;;;;7391832;19;20082;-75
2023/08/18 08:43:24;;;;;;;3.08;2.30;;;26.10;1.00;;;;;;7390332;19;20017;-75
2023/08/18 08:45:55;;;;;;;6.25;2.22;;;26.40;1.00;;;;;;7390223;19;20025;-75
2023/08/18 08:48:31;;;;;;;5.97;2.03;;;26.60;1.00;;;;;;7391454;19;20011;-75
2023/08/18 08:51:05;;;;;;;5.55;2.17;;;26.70;1.00;;;;;;7386764;19;20011;-75
2023/08/18 08:53:41;;;;;;;2.15;1.65;;;26.80;1.00;;;;;;7388944;19;20110;-75
2023/08/18 08:56:16;;;;;;;4.25;2.15;;;26.80;1.00;;;;;;7386975;19;20100;-75
2023/08/18 08:58:46;;;;;;;7.80;2.45;;;26.80;1.00;;;;;;7389506;19;20015;-75
2023/08/18 09:01:16;;;;;;;3.35;2.00;;;27.00;1.00;;;;;;7395469;19;20479;-74
2023/08/18 09:03:47;;;;;;;4.60;1.70;;;27.10;1.00;;;;;;7398218;19;20006;-75
2023/08/18 09:06:17;;;;;;;5.47;2.15;;;27.10;1.00;;;;;;7399495;19;20010;-76
2023/08/18 09:08:48;;;;;;;3.90;2.20;;;27.10;1.00;;;;;;7393976;19;20086;-76
2023/08/18 09:11:40;;;;;;;5.63;2.15;;;27.00;1.00;;;;;;7394295;19;20098;-75
2023/08/18 09:14:10;;;;;;;4.93;2.05;;;27.20;1.00;;;;;;7396909;19;20380;-75
2023/08/18 09:16:41;;;;;;;5.82;2.40;;;27.20;1.00;;;;;;7395695;19;20014;-76
2023/08/18 09:19:14;;;;;;;3.28;1.98;;;27.30;1.00;;;;;;7396210;19;20011;-76
2023/08/18 09:21:44;;;;;;;4.75;1.98;;;27.30;1.00;;;;;;7394047;19;20014;-76
2023/08/18 09:24:14;;;;;;;4.97;2.35;;;27.50;1.00;;;;;;7396166;19;20018;-74
2023/08/18 09:26:47;;;;;;;4.30;2.60;;;27.40;1.00;;;;;;7396842;19;20022;-76
2023/08/18 09:29:17;;;;;;;8.65;2.67;;;27.70;1.00;;;;;;7395660;19;20482;-76
2023/08/18 09:31:48;;;;;;;3.92;2.22;;;27.80;1.00;;;;;;7392503;19;20021;-76
2023/08/18 09:34:22;;;;;;;3.33;2.05;;;27.80;1.00;;;;;;7396431;19;20010;-76
2023/08/18 09:36:55;;;;;;;4.60;2.22;;;28.10;1.00;;;;;;7412601;19;20055;-76
2023/08/18 09:39:26;;;;;;;5.60;2.35;;;27.80;1.00;;;;;;7423631;19;20006;-75
2023/08/18 09:41:58;;;;;;;3.55;1.98;;;27.80;1.00;;;;;;7424322;19;20066;-75
2023/08/18 09:44:28;;;;;;;4.35;2.10;;;27.80;1.00;;;;;;7407539;19;20042;-75
2023/08/18 09:47:00;;;;;;;3.05;2.30;;;28.10;1.00;;;;;;7407625;19;20157;-75
2023/08/18 09:49:31;;;;;;;6.80;3.00;;;28.00;1.00;;;;;;7394946;19;20006;-76
2023/08/18 09:52:06;;;;;;;4.65;2.05;;;28.20;1.00;;;;;;7394824;19;20038;-75
2023/08/18 09:54:46;;;;;;;2.90;2.03;;;28.10;1.00;;;;;;7395813;19;20034;-75
2023/08/18 09:57:24;;;;;;;6.97;2.00;;;28.10;1.00;;;;;;7394444;19;20078;-76
2023/08/18 09:59:58;;;;;;;4.05;2.25;;;28.10;1.00;;;;;;7393637;19;20375;-75
2023/08/18 10:02:34;;;;;;;4.40;1.77;;;27.80;1.00;;;;;;7394108;19;20387;-75
2023/08/18 10:05:05;;;;;;;4.90;2.10;;;28.00;1.00;;;;;;7394257;19;20022;-75
2023/08/18 10:07:37;;;;;;;3.10;1.70;;;27.90;1.00;;;;;;7393527;19;20014;-75
2023/08/18 10:10:09;;;;;;;8.13;1.90;;;28.10;1.00;;;;;;7390842;19;20035;-75
2023/08/18 10:12:42;;;;;;;4.18;1.95;;;28.10;1.00;;;;;;7392808;19;20091;-75
2023/08/18 10:15:13;;;;;;;3.85;1.80;;;28.20;1.00;;;;;;7396549;19;20019;-75
2023/08/18 10:17:44;;;;;;;2.08;1.40;;;28.20;1.00;;;;;;7392728;19;20086;-74
2023/08/18 10:20:15;;;;;;;4.82;1.90;;;28.10;1.00;;;;;;7392297;19;20032;-76
2023/08/18 10:22:46;;;;;;;3.42;2.15;;;28.40;1.00;;;;;;7395769;19;20019;-75
2023/08/18 10:25:28;;;;;;;3.38;1.92;;;28.50;1.00;;;;;;7395266;19;20034;-76
2023/08/18 10:28:00;;;;;;;3.00;1.80;;;28.60;1.00;;;;;;7392455;19;20034;-75
2023/08/18 10:30:31;;;;;;;5.15;2.10;;;28.80;1.00;;;;;;7391189;19;20018;-76
2023/08/18 10:33:06;;;;;;;2.80;1.70;;;28.80;1.00;;;;;;7391919;19;20094;-75
2023/08/18 10:35:41;;;;;;;2.55;1.42;;;28.90;1.00;;;;;;7395968;19;20113;-75
2023/08/18 10:38:13;;;;;;;2.85;1.75;;;28.70;1.00;;;;;;7390990;19;20034;-76
2023/08/18 10:40:43;;;;;;;4.43;1.80;;;28.80;1.00;;;;;;7391471;19;20010;-75
2023/08/18 10:43:17;;;;;;;3.70;1.88;;;29.10;1.00;;;;;;7390246;19;20565;-76
2023/08/18 10:45:52;;;;;;;2.65;1.58;;;29.20;1.00;;;;;;7394751;19;20594;-75
2023/08/18 10:48:31;;;;;;;3.28;1.80;;;28.90;1.00;;;;;;7393047;19;20022;-76
2023/08/18 10:51:02;;;;;;;3.25;1.48;;;28.90;1.00;;;;;;7393769;19;20019;-74
2023/08/18 10:53:37;;;;;;;7.22;1.92;;;28.80;1.00;;;;;;7390701;19;20010;-76
2023/08/18 10:56:07;;;;;;;4.72;1.65;;;29.00;1.00;;;;;;7391726;19;20025;-74
2023/08/18 10:58:39;;;;;;;4.40;1.40;;;29.40;1.00;;;;;;7391549;19;20021;-76
2023/08/18 11:01:11;;;;;;;2.15;1.42;;;29.50;1.00;;;;;;7390174;19;20018;-76
2023/08/18 11:03:41;;;;;;;8.27;1.77;;;29.30;1.00;;;;;;7390655;19;20014;-75
2023/08/18 11:06:11;;;;;;;2.95;2.05;;;29.40;1.00;;;;;;7389844;19;20015;-76
2023/08/18 11:08:42;;;;;;;2.95;1.80;;;29.10;1.00;;;;;;7391073;19;20504;-75
2023/08/18 11:11:12;;;;;;;2.55;1.73;;;29.00;1.00;;;;;;7389979;19;20018;-75
2023/08/18 11:13:46;;;;;;;3.38;1.40;;;29.10;1.00;;;;;;7390533;19;20034;-75
2023/08/18 11:16:17;;;;;;;3.17;1.73;;;29.30;1.00;;;;;;7390939;19;20474;-76
2023/08/18 11:18:47;;;;;;;2.83;1.65;;;29.70;1.00;;;;;;7390216;19;20015;-76
2023/08/18 11:21:17;;;;;;;2.80;1.70;;;29.30;1.00;;;;;;7389222;19;20018;-75
2023/08/18 11:23:47;;;;;;;3.42;1.40;;;29.60;1.00;;;;;;7390609;19;20082;-75
2023/08/18 11:26:17;;;;;;;2.45;1.60;;;29.60;1.00;;;;;;7389807;19;20014;-74
2023/08/18 11:28:50;;;;;;;2.00;1.50;;;29.70;1.00;;;;;;7390169;19;20071;-74
2023/08/18 11:31:22;;;;;;;3.30;1.75;;;29.60;1.00;;;;;;7388924;19;20011;-75
2023/08/18 11:33:52;;;;;;;3.10;1.33;;;29.60;1.00;;;;;;7390609;19;20018;-74
2023/08/18 11:36:22;;;;;;;5.50;2.03;;;29.80;1.00;;;;;;7390648;19;20329;-75
2023/08/18 11:38:52;;;;;;;5.15;1.73;;;29.80;1.00;;;;;;7390697;19;20021;-76
2023/08/18 11:41:22;;;;;;;3.85;1.55;;;29.70;1.00;;;;;;7388195;19;20026;-75
2023/08/18 11:43:55;;;;;;;4.43;1.65;;;29.80;1.00;;;;;;7389710;19;20018;-76
2023/08/18 11:46:25;;;;;;;3.63;1.65;;;29.90;1.00;;;;;;7391276;19;20014;-74
2023/08/18 11:48:57;;;;;;;3.40;1.27;;;30.30;1.00;;;;;;7390041;19;20007;-75
2023/08/18 11:51:27;;;;;;;5.40;1.45;;;30.10;1.00;;;;;;7386474;19;20501;-75
2023/08/18 11:53:57;;;;;;;4.68;1.60;;;30.20;1.00;;;;;;7388742;19;20014;-74
2023/08/18 11:56:31;;;;;;;3.00;1.40;;;30.20;1.00;;;;;;7389466;19;20026;-75
2023/08/18 11:59:07;;;;;;;4.28;1.25;;;30.20;1.00;;;;;;7389277;19;20024;-74
2023/08/18 12:01:37;;;;;;;3.45;1.48;;;30.40;1.00;;;;;;7388058;19;20014;-75
2023/08/18 12:04:13;;;;;;;3.20;1.33;;;30.30;1.00;;;;;;7389494;19;20014;-75
2023/08/18 12:06:42;;;;;;;6.18;1.70;;;30.20;1.00;;;;;;7387124;19;20017;-75
2023/08/18 12:09:12;;;;;;;3.78;1.65;;;30.10;1.00;;;;;;7388402;19;20014;-75
2023/08/18 12:11:42;;;;;;;4.15;1.70;;;30.20;1.00;;;;;;7386658;19;20573;-74
2023/08/18 12:14:15;;;;;;;2.78;1.50;;;30.00;1.00;;;;;;7389491;19;20080;-74
2023/08/18 12:16:45;;;;;;;3.50;1.63;;;30.10;1.00;;;;;;7388995;19;20017;-75
2023/08/18 12:19:16;;;;;;;3.42;1.60;;;30.00;1.00;;;;;;7388416;19;20011;-75
2023/08/18 12:21:46;;;;;;;2.25;1.48;;;30.20;1.00;;;;;;7387346;19;20018;-75
2023/08/18 12:24:16;;;;;;;2.17;1.40;;;30.30;1.00;;;;;;7388827;19;20010;-77
2023/08/18 12:26:46;;;;;;;2.20;1.50;;;30.50;1.00;;;;;;7387289;19;20018;-75
2023/08/18 12:29:19;;;;;;;4.72;1.70;;;30.80;1.00;;;;;;7388449;19;20018;-74
2023/08/18 12:31:49;;;;;;;3.75;1.42;;;30.70;1.00;;;;;;7384289;19;20035;-74
2023/08/18 12:34:19;;;;;;;2.63;1.30;;;30.50;1.00;;;;;;7386773;19;20122;-74
2023/08/18 12:36:49;;;;;;;2.00;1.30;;;30.60;1.00;;;;;;7388819;19;20015;-75
2023/08/18 12:39:20;;;;;;;4.20;1.42;;;31.20;1.00;;;;;;7388089;19;20025;-75
2023/08/18 12:41:49;;;;;;;4.45;1.73;;;31.10;1.00;;;;;;7386706;19;20031;-74
2023/08/18 12:44:22;;;;;;;2.40;1.40;;;31.00;1.00;;;;;;7387478;19;20007;-74
2023/08/18 12:46:52;;;;;;;5.28;1.67;;;31.10;1.00;;;;;;7390587;19;20090;-75
2023/08/18 12:49:24;;;;;;;4.07;1.48;;;31.30;1.00;;;;;;7387809;19;20372;-74
2023/08/18 12:51:54;;;;;;;4.05;1.58;;;31.20;1.00;;;;;;7386407;19;20078;-74
2023/08/18 12:54:24;;;;;;;3.25;1.70;;;31.10;1.00;;;;;;7382471;19;20026;-74
2023/08/18 12:56:54;;;;;;;2.42;1.45;;;30.90;1.00;;;;;;7387488;19;20098;-74
2023/08/18 12:59:26;;;;;;;3.63;1.40;;;30.80;1.00;;;;;;7382155;19;20396;-74
2023/08/18 13:01:57;;;;;;;2.22;1.30;;;30.80;1.00;;;;;;7384883;19;20118;-75
2023/08/18 13:04:27;;;;;;;3.83;1.60;;;31.10;1.00;;;;;;7390045;19;20011;-75
2023/08/18 13:06:57;;;;;;;3.97;1.55;;;31.10;1.00;;;;;;7386988;19;20025;-75
2023/08/18 13:09:27;;;;;;;2.25;1.40;;;31.10;1.00;;;;;;7383639;19;20015;-74
2023/08/18 13:11:58;;;;;;;2.38;1.33;;;30.90;1.00;;;;;;7388310;19;20027;-74
2023/08/18 13:14:30;;;;;;;2.80;1.40;;;31.00;1.00;;;;;;7386247;19;20027;-75
2023/08/18 13:17:00;;;;;;;3.47;1.40;;;31.10;1.00;;;;;;7386706;19;20484;-74